createdAt,value
2023-03-11T00:00:32.554Z,97132.06
2023-03-11T00:03:01.460Z,97131.16
2023-03-11T00:05:34.583Z,97130.44
2023-03-11T00:08:02.279Z,97111.50
2023-03-11T00:10:32.587Z,97068.38
2023-03-11T00:13:01.068Z,96943.94
2023-03-11T00:15:29.459Z,97108.66
2023-03-11T00:17:56.595Z,97035.88
2023-03-11T00:20:29.196Z,97122.69
2023-03-11T00:22:56.531Z,97041.19
2023-03-11T00:25:25.297Z,96921.66
2023-03-11T00:27:52.189Z,97069.34
2023-03-11T00:30:21.008Z,97102.09
2023-03-11T00:32:52.924Z,97130.25
2023-03-11T00:35:24.678Z,97029.41
2023-03-11T00:37:55.588Z,97038.22
2023-03-11T00:40:24.685Z,97039.69
2023-03-11T00:42:51.698Z,97081.75
2023-03-11T00:45:18.599Z,97082.56
2023-03-11T00:47:45.825Z,97081.53
2023-03-11T00:50:21.530Z,97037.25
2023-03-11T00:52:50.423Z,97055.44
2023-03-11T00:55:23.467Z,97075.28
2023-03-11T00:57:56.172Z,97002.44
2023-03-11T01:00:31.482Z,97064.13
2023-03-11T01:02:59.533Z,97065.97
2023-03-11T01:05:29.412Z,97059.00
2023-03-11T01:07:56.459Z,97056.16
2023-03-11T01:10:23.615Z,96963.44
2023-03-11T01:12:51.508Z,97058.41
2023-03-11T01:15:24.097Z,96991.50
2023-03-11T01:17:51.336Z,96986.25
2023-03-11T01:20:18.593Z,97038.69
2023-03-11T01:22:45.586Z,96974.66
2023-03-11T01:25:15.328Z,97018.97
2023-03-11T01:27:42.521Z,96962.50
2023-03-11T01:30:12.953Z,96985.50
2023-03-11T01:32:39.791Z,97007.03
2023-03-11T01:35:07.305Z,97001.19
2023-03-11T01:37:34.118Z,96916.19
2023-03-11T01:40:00.932Z,96973.00
2023-03-11T01:42:27.882Z,96955.00
2023-03-11T01:44:55.666Z,97010.00
2023-03-11T01:47:40.907Z,96965.97
2023-03-11T01:50:12.961Z,96995.16
2023-03-11T01:52:42.258Z,96969.50
2023-03-11T01:55:09.898Z,96991.47
2023-03-11T01:57:39.318Z,96949.06
2023-03-11T02:00:09.641Z,97002.63
2023-03-11T02:02:49.453Z,96994.03
2023-03-11T02:05:17.067Z,96987.16
2023-03-11T02:07:44.113Z,96974.34
2023-03-11T02:10:14.268Z,96889.44
2023-03-11T02:12:42.439Z,96837.41
2023-03-11T02:15:10.603Z,96958.56
2023-03-11T02:17:39.785Z,96874.66
2023-03-11T02:20:25.372Z,96960.97
2023-03-11T02:22:57.242Z,96954.31
2023-03-11T02:25:39.433Z,96949.91
2023-03-11T02:28:10.454Z,96926.56
2023-03-11T02:30:40.853Z,96934.09
2023-03-11T02:33:08.712Z,96947.13
2023-03-11T02:35:36.096Z,96943.63
2023-03-11T02:38:02.976Z,96730.72
2023-03-11T02:40:51.798Z,96846.13
2023-03-11T02:43:27.571Z,96841.00
2023-03-11T02:45:55.604Z,96695.81
2023-03-11T02:48:23.958Z,96927.00
2023-03-11T02:50:51.963Z,96910.22
2023-03-11T02:53:19.652Z,96901.78
2023-03-11T02:55:47.134Z,96937.63
2023-03-11T02:58:14.137Z,96837.13
2023-03-11T03:00:41.385Z,96919.59
2023-03-11T03:03:08.855Z,96809.47
2023-03-11T03:05:35.865Z,96868.50
2023-03-11T03:08:02.975Z,96888.22
2023-03-11T03:10:29.951Z,96875.13
2023-03-11T03:12:57.465Z,96932.69
2023-03-11T03:15:25.254Z,96924.88
2023-03-11T03:17:52.106Z,96905.66
2023-03-11T03:20:19.817Z,96868.81
2023-03-11T03:22:50.529Z,96866.16
2023-03-11T03:25:19.779Z,96881.00
2023-03-11T03:27:47.233Z,96894.09
2023-03-11T03:30:15.256Z,96819.88
2023-03-11T03:32:43.029Z,96881.88
2023-03-11T03:35:13.004Z,96877.34
2023-03-11T03:38:02.735Z,96762.94
2023-03-11T03:40:29.630Z,96757.47
2023-03-11T03:42:59.087Z,96861.25
2023-03-11T03:45:26.912Z,96868.47
2023-03-11T03:47:54.086Z,96752.13
2023-03-11T03:50:23.465Z,96847.13
2023-03-11T03:52:52.383Z,96854.50
2023-03-11T03:55:21.175Z,96842.50
2023-03-11T03:57:48.379Z,96837.25
2023-03-11T04:00:16.257Z,96721.47
2023-03-11T04:02:46.341Z,96827.22
2023-03-11T04:05:21.989Z,96768.75
2023-03-11T04:07:49.061Z,96831.81
2023-03-11T04:10:16.200Z,96678.88
2023-03-11T04:12:43.516Z,96823.19
2023-03-11T04:15:11.167Z,96794.84
2023-03-11T04:17:40.536Z,96650.34
2023-03-11T04:20:09.658Z,96699.66
2023-03-11T04:22:36.988Z,96732.00
2023-03-11T04:25:04.813Z,96735.50
2023-03-11T04:27:32.807Z,96769.88
2023-03-11T04:30:00.635Z,96842.06
2023-03-11T04:32:27.857Z,96806.34
2023-03-11T04:34:54.904Z,96842.50
2023-03-11T04:37:21.773Z,96819.53
2023-03-11T04:39:50.994Z,96762.88
2023-03-11T04:42:19.114Z,96822.94
2023-03-11T04:44:46.056Z,96810.00
2023-03-11T04:47:13.057Z,96740.69
2023-03-11T04:49:40.578Z,96774.34
2023-03-11T04:52:07.528Z,96595.44
2023-03-11T04:54:34.343Z,96765.72
2023-03-11T04:57:01.335Z,96786.94
2023-03-11T04:59:28.378Z,96747.31
2023-03-11T05:01:55.456Z,96713.44
2023-03-11T05:04:22.801Z,96785.75
2023-03-11T05:06:51.269Z,96742.69
2023-03-11T05:09:18.884Z,96681.06
2023-03-11T05:11:46.280Z,96553.22
2023-03-11T05:14:14.642Z,96670.34
2023-03-11T05:16:41.788Z,96639.59
2023-03-11T05:19:28.325Z,96758.63
2023-03-11T05:21:55.878Z,96707.03
2023-03-11T05:24:27.586Z,96730.69
2023-03-11T05:26:55.523Z,96746.13
2023-03-11T05:29:23.181Z,96716.09
2023-03-11T05:31:50.204Z,96727.25
2023-03-11T05:34:18.590Z,96728.53
2023-03-11T05:36:45.785Z,96698.47
2023-03-11T05:39:13.446Z,96593.63
2023-03-11T05:41:40.682Z,96709.63
2023-03-11T05:44:07.648Z,96708.91
2023-03-11T05:46:34.753Z,96715.09
2023-03-11T05:49:02.940Z,96706.97
2023-03-11T05:51:30.057Z,96722.81
2023-03-11T05:53:57.224Z,96660.75
2023-03-11T05:56:33.189Z,96719.75
2023-03-11T05:59:00.523Z,96687.69
2023-03-11T06:01:30.852Z,96635.44
2023-03-11T06:03:58.014Z,96720.41
2023-03-11T06:06:25.174Z,96615.56
2023-03-11T06:08:52.384Z,96724.09
2023-03-11T06:11:23.836Z,96748.81
2023-03-11T06:13:54.566Z,96611.13
2023-03-11T06:16:24.617Z,96702.16
2023-03-11T06:18:52.488Z,96728.00
2023-03-11T06:21:22.281Z,96717.44
2023-03-11T06:23:49.903Z,96571.47
2023-03-11T06:26:20.255Z,96577.13
2023-03-11T06:28:48.559Z,96686.97
2023-03-11T06:31:42.289Z,96654.28
2023-03-11T06:34:15.460Z,96714.88
2023-03-11T06:36:42.393Z,96715.31
2023-03-11T06:39:13.123Z,96683.78
2023-03-11T06:41:40.368Z,96700.66
2023-03-11T06:44:10.698Z,96680.53
2023-03-11T06:46:38.850Z,96690.25
2023-03-11T06:49:06.573Z,96690.13
2023-03-11T06:51:34.276Z,96690.16
2023-03-11T06:54:03.073Z,96655.22
2023-03-11T06:56:30.235Z,96682.63
2023-03-11T06:59:05.208Z,96686.28
2023-03-11T07:01:34.403Z,96627.16
2023-03-11T07:04:04.465Z,96683.03
2023-03-11T07:06:32.288Z,96661.25
2023-03-11T07:09:05.388Z,96678.34
2023-03-11T07:11:34.156Z,96627.16
2023-03-11T07:14:14.723Z,96665.94
2023-03-11T07:16:46.066Z,96630.28
2023-03-11T07:19:24.127Z,96667.59
2023-03-11T07:21:51.791Z,96601.34
2023-03-11T07:24:18.665Z,96652.72
2023-03-11T07:26:46.215Z,96651.91
2023-03-11T07:29:13.104Z,96585.91
2023-03-11T07:31:41.199Z,96650.28
2023-03-11T07:34:11.603Z,96598.25
2023-03-11T07:36:43.045Z,96627.38
2023-03-11T07:39:16.328Z,96626.03
2023-03-11T07:41:43.912Z,96618.44
2023-03-11T07:44:13.582Z,96634.06
2023-03-11T07:46:41.010Z,96624.44
2023-03-11T07:49:08.063Z,96622.66
2023-03-11T07:51:36.576Z,96617.09
2023-03-11T07:54:04.085Z,96624.31
2023-03-11T07:56:34.123Z,96616.41
2023-03-11T07:59:02.971Z,96543.72
2023-03-11T08:01:36.157Z,96604.22
2023-03-11T08:04:07.623Z,96600.69
2023-03-11T08:06:37.108Z,96567.22
2023-03-11T08:09:09.301Z,96570.84
2023-03-11T08:11:37.060Z,96498.03
2023-03-11T08:14:04.910Z,96597.63
2023-03-11T08:16:31.903Z,96567.22
2023-03-11T08:18:59.074Z,96577.41
2023-03-11T08:21:29.142Z,96588.19
2023-03-11T08:23:58.961Z,96593.69
2023-03-11T08:26:26.691Z,96582.31
2023-03-11T08:28:55.203Z,96569.56
2023-03-11T08:31:25.376Z,96611.25
2023-03-11T08:33:54.878Z,96578.13
2023-03-11T08:36:22.032Z,96574.28
2023-03-11T08:38:49.256Z,96557.75
2023-03-11T08:41:16.647Z,96579.16
2023-03-11T08:43:44.571Z,96570.59
2023-03-11T08:46:30.418Z,96387.81
2023-03-11T08:49:00.920Z,96520.59
2023-03-11T08:51:30.413Z,96570.47
2023-03-11T08:53:57.858Z,96480.53
2023-03-11T08:56:25.726Z,96510.47
2023-03-11T08:58:52.819Z,96567.25
2023-03-11T09:01:20.418Z,96574.88
2023-03-11T09:03:47.354Z,96570.81
2023-03-11T09:06:16.033Z,96455.50
2023-03-11T09:08:44.908Z,96569.31
2023-03-11T09:11:13.619Z,96576.22
2023-03-11T09:13:42.304Z,96576.94
2023-03-11T09:16:13.028Z,96574.81
2023-03-11T09:18:40.248Z,96545.63
2023-03-11T09:21:07.326Z,96535.69
2023-03-11T09:23:34.344Z,96567.72
2023-03-11T09:26:01.264Z,96582.03
2023-03-11T09:28:28.171Z,96575.41
2023-03-11T09:30:55.332Z,96432.25
2023-03-11T09:33:22.366Z,96512.34
2023-03-11T09:35:49.181Z,96532.97
2023-03-11T09:38:16.349Z,96542.91
2023-03-11T09:40:50.297Z,96549.25
2023-03-11T09:43:31.276Z,96523.38
2023-03-11T09:46:34.388Z,96551.34
2023-03-11T09:49:33.912Z,96444.97
2023-03-11T09:52:00.820Z,96540.09
2023-03-11T09:54:30.748Z,96438.66
2023-03-11T09:57:01.927Z,96541.38
2023-03-11T09:59:32.555Z,96552.44
2023-03-11T10:02:00.586Z,96477.31
2023-03-11T10:04:34.228Z,96534.78
2023-03-11T10:07:03.189Z,96536.91
2023-03-11T10:09:41.515Z,96530.91
2023-03-11T10:12:21.901Z,96546.66
2023-03-11T10:14:54.873Z,96549.06
2023-03-11T10:17:51.929Z,96532.56
2023-03-11T10:21:00.274Z,96543.31
2023-03-11T10:23:33.477Z,96540.25
2023-03-11T10:26:41.697Z,96484.63
2023-03-11T10:29:30.336Z,96521.13
2023-03-11T10:32:34.935Z,96521.56
2023-03-11T10:35:22.437Z,96508.31
2023-03-11T10:38:05.590Z,96539.09
2023-03-11T10:40:36.085Z,96545.13
2023-03-11T10:43:32.107Z,96541.59
2023-03-11T10:45:59.433Z,96477.63
2023-03-11T10:48:26.329Z,96503.91
2023-03-11T10:51:04.017Z,96501.13
2023-03-11T10:53:31.249Z,96540.13
2023-03-11T10:55:59.493Z,96519.28
2023-03-11T10:58:29.437Z,96546.13
2023-03-11T11:01:16.718Z,96531.59
2023-03-11T11:03:47.151Z,96467.63
2023-03-11T11:06:37.238Z,96530.78
2023-03-11T11:09:36.727Z,96528.19
2023-03-11T11:12:15.874Z,96526.53
2023-03-11T11:14:48.104Z,96482.34
2023-03-11T11:17:30.052Z,96547.75
2023-03-11T11:19:58.895Z,96421.00
2023-03-11T11:22:26.305Z,96517.47
2023-03-11T11:24:55.389Z,96511.13
2023-03-11T11:27:29.182Z,96525.88
2023-03-11T11:30:11.191Z,96499.19
2023-03-11T11:32:38.509Z,96492.03
2023-03-11T11:35:14.692Z,96497.88
2023-03-11T11:37:54.187Z,96510.63
2023-03-11T11:40:24.076Z,96487.19
2023-03-11T11:42:53.179Z,96493.19
2023-03-11T11:45:30.342Z,96490.91
2023-03-11T11:48:03.920Z,96436.38
2023-03-11T11:50:43.454Z,96455.94
2023-03-11T11:53:49.972Z,96491.22
2023-03-11T11:56:16.920Z,96377.13
2023-03-11T11:58:43.882Z,96385.75
2023-03-11T12:01:29.146Z,96490.75
2023-03-11T12:03:59.174Z,96484.44
2023-03-11T12:06:38.251Z,96490.41
2023-03-11T12:09:27.074Z,96484.44
2023-03-11T12:12:05.149Z,96482.16
2023-03-11T12:15:00.762Z,96347.72
2023-03-11T12:17:30.212Z,96478.13
2023-03-11T12:20:02.937Z,96379.44
2023-03-11T12:22:48.592Z,96483.47
2023-03-11T12:25:34.590Z,96411.16
2023-03-11T12:28:20.158Z,96477.66
2023-03-11T12:30:54.366Z,96499.00
2023-03-11T12:33:31.647Z,96476.03
2023-03-11T12:36:00.046Z,96472.16
2023-03-11T12:38:34.297Z,96475.06
2023-03-11T12:41:05.851Z,96473.78
2023-03-11T12:43:33.915Z,96471.38
2023-03-11T12:46:03.352Z,96441.75
2023-03-11T12:48:30.291Z,96466.03
2023-03-11T12:50:58.693Z,96466.34
2023-03-11T12:53:49.385Z,96470.03
2023-03-11T12:56:28.519Z,96460.16
2023-03-11T12:59:07.040Z,96462.91
2023-03-11T13:02:06.943Z,96481.88
2023-03-11T13:05:01.583Z,96483.00
2023-03-11T13:07:43.586Z,96466.19
2023-03-11T13:10:34.811Z,95952.03
2023-03-11T13:13:02.832Z,96462.13
2023-03-11T13:15:33.804Z,96441.41
2023-03-11T13:18:12.918Z,96456.47
2023-03-11T13:20:42.416Z,96460.19
2023-03-11T13:23:22.005Z,96484.31
2023-03-11T13:26:36.560Z,96447.84
2023-03-11T13:29:22.313Z,96442.34
2023-03-11T13:32:13.098Z,96440.88
2023-03-11T13:34:54.934Z,96444.16
2023-03-11T13:37:50.292Z,96435.59
2023-03-11T13:40:38.025Z,96431.88
2023-03-11T13:43:20.970Z,96446.13
2023-03-11T13:46:13.707Z,96435.56
2023-03-11T13:48:48.256Z,96434.28
2023-03-11T13:51:40.314Z,96437.50
2023-03-11T13:54:22.863Z,96448.69
2023-03-11T13:57:01.213Z,96385.44
2023-03-11T13:59:31.639Z,96445.16
2023-03-11T14:02:04.764Z,96442.22
2023-03-11T14:04:35.994Z,96438.19
2023-03-11T14:07:23.701Z,96416.81
2023-03-11T14:09:50.753Z,96353.59
2023-03-11T14:12:19.163Z,96369.28
2023-03-11T14:15:11.314Z,96459.84
2023-03-11T14:17:38.456Z,96376.34
2023-03-11T14:20:22.432Z,96419.88
2023-03-11T14:22:51.934Z,96430.72
2023-03-11T14:25:31.219Z,96439.44
2023-03-11T14:28:01.788Z,96387.16
2023-03-11T14:30:31.660Z,96432.19
2023-03-11T14:33:18.378Z,96436.38
2023-03-11T14:36:12.253Z,96428.72
2023-03-11T14:38:43.788Z,96405.28
2023-03-11T14:41:13.941Z,96440.38
2023-03-11T14:43:44.526Z,96428.75
2023-03-11T14:46:22.171Z,96363.47
2023-03-11T14:48:49.392Z,96421.72
2023-03-11T14:51:29.252Z,96373.97
2023-03-11T14:54:26.205Z,96427.03
2023-03-11T14:57:24.451Z,96430.53
2023-03-11T14:59:52.809Z,96360.22
2023-03-11T15:03:17.026Z,96407.19
2023-03-11T15:05:51.582Z,96439.34
2023-03-11T15:08:23.405Z,96442.53
2023-03-11T15:11:06.726Z,96437.06
2023-03-11T15:13:35.377Z,96379.84
2023-03-11T15:16:05.528Z,96377.06
2023-03-11T15:18:37.914Z,96293.34
2023-03-11T15:21:22.519Z,96387.16
2023-03-11T15:23:52.718Z,96430.84
2023-03-11T15:26:26.044Z,96431.00
2023-03-11T15:29:23.791Z,96401.25
2023-03-11T15:31:50.703Z,96434.84
2023-03-11T15:34:32.073Z,96446.03
2023-03-11T15:37:20.403Z,96469.25
2023-03-11T15:39:51.132Z,96432.16
2023-03-11T15:42:26.237Z,96431.69
2023-03-11T15:45:22.077Z,96429.44
2023-03-11T15:47:50.710Z,96427.16
2023-03-11T15:50:26.008Z,96433.50
2023-03-11T15:52:57.844Z,96450.00
2023-03-11T15:55:27.189Z,96433.09
2023-03-11T15:58:02.364Z,96406.22
2023-03-11T16:00:29.573Z,96434.88
2023-03-11T16:02:56.502Z,96448.75
2023-03-11T16:05:25.136Z,96407.69
2023-03-11T16:07:51.984Z,96266.50
2023-03-11T16:10:21.777Z,96432.38
2023-03-11T16:12:48.969Z,96433.94
2023-03-11T16:15:36.920Z,96396.78
2023-03-11T16:18:07.515Z,96432.00
2023-03-11T16:20:41.210Z,96339.00
2023-03-11T16:23:32.227Z,96370.78
2023-03-11T16:26:05.208Z,96440.47
2023-03-11T16:28:32.092Z,96363.59
2023-03-11T16:30:58.989Z,96454.09
2023-03-11T16:33:26.046Z,96454.72
2023-03-11T16:35:53.193Z,96398.50
2023-03-11T16:38:23.082Z,96451.50
2023-03-11T16:40:57.284Z,96467.28
2023-03-11T16:43:24.012Z,96436.44
2023-03-11T16:45:50.854Z,96457.53
2023-03-11T16:48:17.788Z,96415.88
2023-03-11T16:50:44.734Z,96461.16
2023-03-11T16:53:11.906Z,96441.41
2023-03-11T16:55:38.881Z,96466.31
2023-03-11T16:58:05.768Z,96440.06
2023-03-11T17:00:32.660Z,96446.75
2023-03-11T17:02:59.449Z,96380.66
2023-03-11T17:05:26.235Z,96437.53
2023-03-11T17:07:57.401Z,96470.47
2023-03-11T17:10:24.561Z,96474.53
2023-03-11T17:12:51.304Z,96351.44
2023-03-11T17:15:18.143Z,96422.72
2023-03-11T17:17:45.027Z,96471.41
2023-03-11T17:20:12.781Z,96466.28
2023-03-11T17:22:39.658Z,96467.00
2023-03-11T17:25:07.116Z,96382.03
2023-03-11T17:27:34.121Z,96424.56
2023-03-11T17:30:02.760Z,96463.19
2023-03-11T17:32:30.239Z,96447.91
2023-03-11T17:34:57.252Z,96388.19
2023-03-11T17:37:24.698Z,96400.72
2023-03-11T17:39:51.478Z,96467.34
2023-03-11T17:42:18.437Z,96384.66
2023-03-11T17:44:51.687Z,96464.03
2023-03-11T17:47:19.866Z,96450.31
2023-03-11T17:49:48.624Z,96455.94
2023-03-11T17:52:15.384Z,96460.56
2023-03-11T17:54:42.465Z,96463.56
2023-03-11T17:57:09.338Z,96451.06
2023-03-11T17:59:38.233Z,96451.25
2023-03-11T18:02:05.372Z,96467.91
2023-03-11T18:04:32.535Z,96469.59
2023-03-11T18:06:59.734Z,96353.63
2023-03-11T18:09:26.770Z,96472.06
2023-03-11T18:11:54.438Z,96435.84
2023-03-11T18:14:22.802Z,96417.59
2023-03-11T18:16:49.615Z,96475.97
2023-03-11T18:19:17.121Z,96472.72
2023-03-11T18:21:44.756Z,96478.19
2023-03-11T18:24:13.100Z,96420.13
2023-03-11T18:26:40.463Z,96474.06
2023-03-11T18:29:13.844Z,96478.03
2023-03-11T18:31:40.941Z,96460.25
2023-03-11T18:34:15.892Z,96484.06
2023-03-11T18:36:46.968Z,96493.41
2023-03-11T18:39:15.259Z,96486.91
2023-03-11T18:41:45.530Z,96469.22
2023-03-11T18:44:12.565Z,96387.56
2023-03-11T18:46:42.586Z,96502.41
2023-03-11T18:49:15.224Z,96511.66
2023-03-11T18:51:45.946Z,96504.72
2023-03-11T18:54:20.111Z,96543.72
2023-03-11T18:56:50.306Z,96545.19
2023-03-11T18:59:17.506Z,96534.81
2023-03-11T19:01:44.408Z,96538.50
2023-03-11T19:04:11.336Z,96539.84
2023-03-11T19:06:38.217Z,96555.88
2023-03-11T19:09:06.764Z,96517.09
2023-03-11T19:11:33.698Z,96577.28
2023-03-11T19:14:00.487Z,96583.34
2023-03-11T19:16:27.552Z,96548.97
2023-03-11T19:18:55.252Z,96463.78
2023-03-11T19:21:23.262Z,96595.16
2023-03-11T19:23:53.839Z,96540.81
2023-03-11T19:26:27.939Z,96593.41
2023-03-11T19:29:00.883Z,96578.59
2023-03-11T19:31:27.985Z,96609.19
2023-03-11T19:33:55.301Z,96614.22
2023-03-11T19:36:22.216Z,96605.88
2023-03-11T19:38:49.138Z,96622.69
2023-03-11T19:41:23.126Z,96587.56
2023-03-11T19:43:50.692Z,96540.56
2023-03-11T19:46:21.285Z,96613.38
2023-03-11T19:48:48.238Z,96622.72
2023-03-11T19:51:17.117Z,96629.72
2023-03-11T19:53:44.278Z,96585.28
2023-03-11T19:56:11.291Z,96600.63
2023-03-11T19:58:38.335Z,96644.63
2023-03-11T20:01:05.258Z,96625.50
2023-03-11T20:03:32.082Z,96651.59
2023-03-11T20:06:05.525Z,96608.66
2023-03-11T20:08:36.787Z,96664.75
2023-03-11T20:11:05.264Z,96665.78
2023-03-11T20:13:34.689Z,96650.41
2023-03-11T20:16:09.820Z,96647.53
2023-03-11T20:18:37.896Z,96669.50
2023-03-11T20:21:07.815Z,96710.16
2023-03-11T20:23:39.142Z,96676.03
2023-03-11T20:26:08.467Z,96687.88
2023-03-11T20:28:36.667Z,96701.84
2023-03-11T20:31:11.330Z,96713.31
2023-03-11T20:33:38.993Z,96714.00
2023-03-11T20:36:13.156Z,96464.44
2023-03-11T20:38:41.027Z,96682.81
2023-03-11T20:41:09.802Z,96694.81
2023-03-11T20:43:37.791Z,96654.13
2023-03-11T20:46:07.133Z,96712.63
2023-03-11T20:48:35.363Z,96688.34
2023-03-11T20:51:10.520Z,96554.28
2023-03-11T20:53:38.559Z,96728.19
2023-03-11T20:56:15.575Z,96745.75
2023-03-11T20:58:45.767Z,96736.88
2023-03-11T21:01:16.030Z,96653.97
2023-03-11T21:03:44.164Z,96750.25
2023-03-11T21:06:15.543Z,96755.56
2023-03-11T21:08:43.041Z,96754.47
2023-03-11T21:11:10.439Z,96722.19
2023-03-11T21:13:39.196Z,96697.25
2023-03-11T21:16:07.112Z,96779.44
2023-03-11T21:18:34.437Z,96630.53
2023-03-11T21:21:04.209Z,96764.13
2023-03-11T21:23:31.792Z,96682.38
2023-03-11T21:26:04.176Z,96642.81
2023-03-11T21:28:34.335Z,96746.50
2023-03-11T21:31:07.741Z,96730.25
2023-03-11T21:33:34.981Z,96755.59
2023-03-11T21:36:02.056Z,96759.00
2023-03-11T21:38:29.399Z,96676.16
2023-03-11T21:45:05.791Z,96721.06
2023-03-11T21:47:32.821Z,96713.59
2023-03-11T21:49:59.702Z,96757.84
2023-03-11T21:52:26.703Z,96796.41
2023-03-11T21:54:53.539Z,96764.41
2023-03-11T21:57:20.325Z,96789.19
2023-03-11T21:59:47.418Z,96784.81
2023-03-11T22:02:16.235Z,96801.84
2023-03-11T22:04:43.706Z,96804.41
2023-03-11T22:07:10.877Z,96807.38
2023-03-11T22:09:37.984Z,96694.97
2023-03-11T22:12:05.350Z,96826.59
2023-03-11T22:14:32.363Z,96787.06
2023-03-11T22:16:59.227Z,96737.47
2023-03-11T22:19:26.280Z,96826.97
2023-03-11T22:21:53.462Z,96808.59
2023-03-11T22:24:20.398Z,96833.69
2023-03-11T22:26:47.580Z,96800.09
2023-03-11T22:29:15.772Z,96859.19
2023-03-11T22:31:43.571Z,96837.75
2023-03-11T22:34:10.354Z,96854.53
2023-03-11T22:36:37.200Z,96852.59
2023-03-11T22:39:04.986Z,96793.63
2023-03-11T22:41:32.696Z,96837.78
2023-03-11T22:43:59.838Z,96832.41
2023-03-11T22:46:26.778Z,96853.13
2023-03-11T22:48:53.700Z,96864.47
2023-03-11T22:51:21.040Z,96777.31
2023-03-11T22:53:47.902Z,96877.50
2023-03-11T22:56:16.774Z,96835.69
2023-03-11T22:58:43.982Z,96842.34
2023-03-11T23:01:11.146Z,96872.88
2023-03-11T23:03:38.681Z,96908.94
2023-03-11T23:06:09.254Z,96838.16
2023-03-11T23:08:36.440Z,96861.13
2023-03-11T23:11:05.863Z,96918.78
2023-03-11T23:13:35.595Z,96870.69
2023-03-11T23:16:08.041Z,96902.06
2023-03-11T23:18:35.933Z,96904.28
2023-03-11T23:21:03.450Z,96910.56
2023-03-11T23:23:30.563Z,96945.16
2023-03-11T23:25:57.360Z,96831.91
2023-03-11T23:28:24.202Z,96950.00
2023-03-11T23:30:51.080Z,96936.06
2023-03-11T23:33:17.852Z,96922.44
2023-03-11T23:35:44.716Z,96945.63
2023-03-11T23:38:11.546Z,96839.56
2023-03-11T23:40:40.560Z,96915.44
2023-03-11T23:43:07.529Z,96956.41
2023-03-11T23:45:34.373Z,96920.16
2023-03-11T23:48:01.154Z,96971.34
2023-03-11T23:50:28.006Z,96970.16
2023-03-11T23:52:54.897Z,96973.50
2023-03-11T23:55:21.705Z,96858.66
2023-03-11T23:57:48.578Z,96942.63
